Terminal Aerodrome Forecast
Issued by NWS Cleveland, OH

Home | Current Version | Previous Version | Text Only | Print | Product List | Glossary Off
Versions: 1 2 3 4 5 6 7 8 9 10 11 12 13 14 15 16 17 18 19 20 21 22

446
FTUS41 KCLE 260256 AAA
TAFERI
TAF AMD
KERI 260256Z 2603/2624 06005KT P6SM BKN070 OVC100
     FM260700 16005KT 5SM -SHRA OVC050
     FM260900 01010KT 5SM BR OVC010
      TEMPO 2611/2614 BKN009
     FM261500 03015G22KT P6SM OVC010=

USA.gov is the U.S. government's official web portal to all federal, state and local government web resources and services.